sensor_id;sensor_type;location;lat;lon;timestamp;pressure;altitude;pressure_sealevel;temperature
42119;BMP280;27783;42.782;23.274;2023-04-06T00:00:43;95307.03;;;1.60
42119;BMP280;27783;42.782;23.274;2023-04-06T00:03:09;95323.13;;;1.65
42119;BMP280;27783;42.782;23.274;2023-04-06T00:05:35;95316.19;;;1.69
42119;BMP280;27783;42.782;23.274;2023-04-06T00:08:03;95313.38;;;1.74
42119;BMP280;27783;42.782;23.274;2023-04-06T00:10:37;95311.09;;;1.72
42119;BMP280;27783;42.782;23.274;2023-04-06T00:13:05;95317.72;;;1.70
42119;BMP280;27783;42.782;23.274;2023-04-06T00:15:32;95301.38;;;1.69
42119;BMP280;27783;42.782;23.274;2023-04-06T00:17:59;95304.28;;;1.68
42119;BMP280;27783;42.782;23.274;2023-04-06T00:20:26;95288.53;;;1.61
42119;BMP280;27783;42.782;23.274;2023-04-06T00:22:52;95288.06;;;1.71
42119;BMP280;27783;42.782;23.274;2023-04-06T00:25:19;95281.44;;;1.73
42119;BMP280;27783;42.782;23.274;2023-04-06T00:27:46;95289.47;;;1.68
42119;BMP280;27783;42.782;23.274;2023-04-06T00:30:14;95285.03;;;1.69
42119;BMP280;27783;42.782;23.274;2023-04-06T00:32:40;95273.66;;;1.73
42119;BMP280;27783;42.782;23.274;2023-04-06T00:35:06;95274.06;;;1.75
42119;BMP280;27783;42.782;23.274;2023-04-06T00:37:33;95276.47;;;1.68
42119;BMP280;27783;42.782;23.274;2023-04-06T00:40:01;95278.00;;;1.69
42119;BMP280;27783;42.782;23.274;2023-04-06T00:42:30;95275.00;;;1.67
42119;BMP280;27783;42.782;23.274;2023-04-06T00:44:58;95275.06;;;1.71
42119;BMP280;27783;42.782;23.274;2023-04-06T00:47:24;95271.81;;;1.74
42119;BMP280;27783;42.782;23.274;2023-04-06T00:49:51;95276.34;;;1.77
42119;BMP280;27783;42.782;23.274;2023-04-06T00:52:17;95273.94;;;1.83
42119;BMP280;27783;42.782;23.274;2023-04-06T00:54:57;95270.69;;;1.75
42119;BMP280;27783;42.782;23.274;2023-04-06T00:57:25;95274.72;;;1.72
42119;BMP280;27783;42.782;23.274;2023-04-06T00:59:50;95271.16;;;1.77
42119;BMP280;27783;42.782;23.274;2023-04-06T01:02:17;95272.31;;;1.79
42119;BMP280;27783;42.782;23.274;2023-04-06T01:04:45;95278.78;;;1.85
42119;BMP280;27783;42.782;23.274;2023-04-06T01:07:10;95265.38;;;1.83
42119;BMP280;27783;42.782;23.274;2023-04-06T01:09:36;95267.63;;;1.84
42119;BMP280;27783;42.782;23.274;2023-04-06T01:12:02;95267.13;;;1.79
42119;BMP280;27783;42.782;23.274;2023-04-06T01:14:28;95263.75;;;1.79
42119;BMP280;27783;42.782;23.274;2023-04-06T01:16:54;95257.31;;;1.88
42119;BMP280;27783;42.782;23.274;2023-04-06T01:19:21;95255.56;;;1.92
42119;BMP280;27783;42.782;23.274;2023-04-06T01:21:48;95252.47;;;1.86
42119;BMP280;27783;42.782;23.274;2023-04-06T01:24:14;95254.22;;;1.83
42119;BMP280;27783;42.782;23.274;2023-04-06T01:29:27;95250.53;;;1.83
42119;BMP280;27783;42.782;23.274;2023-04-06T01:31:59;95249.19;;;1.89
42119;BMP280;27783;42.782;23.274;2023-04-06T01:34:28;95246.34;;;1.79
42119;BMP280;27783;42.782;23.274;2023-04-06T01:36:54;95246.41;;;1.67
42119;BMP280;27783;42.782;23.274;2023-04-06T01:39:21;95243.75;;;1.79
42119;BMP280;27783;42.782;23.274;2023-04-06T01:41:47;95247.94;;;1.83
42119;BMP280;27783;42.782;23.274;2023-04-06T01:44:16;95246.75;;;1.81
42119;BMP280;27783;42.782;23.274;2023-04-06T01:46:42;95231.84;;;1.78
42119;BMP280;27783;42.782;23.274;2023-04-06T01:49:10;95230.59;;;1.87
42119;BMP280;27783;42.782;23.274;2023-04-06T01:51:35;95230.53;;;1.84
42119;BMP280;27783;42.782;23.274;2023-04-06T01:54:11;95235.63;;;1.81
42119;BMP280;27783;42.782;23.274;2023-04-06T01:56:59;95225.16;;;1.77
42119;BMP280;27783;42.782;23.274;2023-04-06T01:59:34;95234.16;;;1.68
42119;BMP280;27783;42.782;23.274;2023-04-06T02:02:20;95224.03;;;1.78
42119;BMP280;27783;42.782;23.274;2023-04-06T02:04:51;95221.53;;;1.66
42119;BMP280;27783;42.782;23.274;2023-04-06T02:07:16;95221.25;;;1.71
42119;BMP280;27783;42.782;23.274;2023-04-06T02:09:42;95206.53;;;1.75
42119;BMP280;27783;42.782;23.274;2023-04-06T02:12:09;95220.72;;;1.78
42119;BMP280;27783;42.782;23.274;2023-04-06T02:14:36;95221.25;;;1.71
42119;BMP280;27783;42.782;23.274;2023-04-06T02:17:04;95229.81;;;1.72
42119;BMP280;27783;42.782;23.274;2023-04-06T02:19:30;95227.75;;;1.77
42119;BMP280;27783;42.782;23.274;2023-04-06T02:21:57;95224.38;;;1.77
42119;BMP280;27783;42.782;23.274;2023-04-06T02:24:22;95217.34;;;1.77
42119;BMP280;27783;42.782;23.274;2023-04-06T02:26:49;95214.50;;;1.82
42119;BMP280;27783;42.782;23.274;2023-04-06T02:29:18;95212.56;;;1.79
42119;BMP280;27783;42.782;23.274;2023-04-06T02:31:43;95219.97;;;1.77
42119;BMP280;27783;42.782;23.274;2023-04-06T02:34:10;95224.22;;;1.70
42119;BMP280;27783;42.782;23.274;2023-04-06T02:36:37;95221.34;;;1.75
42119;BMP280;27783;42.782;23.274;2023-04-06T02:39:02;95222.03;;;1.72
42119;BMP280;27783;42.782;23.274;2023-04-06T02:41:28;95222.63;;;1.81
42119;BMP280;27783;42.782;23.274;2023-04-06T02:43:54;95218.63;;;1.83
42119;BMP280;27783;42.782;23.274;2023-04-06T02:46:26;95227.66;;;1.74
42119;BMP280;27783;42.782;23.274;2023-04-06T02:48:51;95230.53;;;1.84
42119;BMP280;27783;42.782;23.274;2023-04-06T02:51:17;95232.69;;;1.82
42119;BMP280;27783;42.782;23.274;2023-04-06T02:53:43;95232.50;;;1.75
42119;BMP280;27783;42.782;23.274;2023-04-06T02:56:12;95225.91;;;1.78
42119;BMP280;27783;42.782;23.274;2023-04-06T02:58:38;95224.13;;;1.82
42119;BMP280;27783;42.782;23.274;2023-04-06T03:01:06;95220.78;;;1.81
42119;BMP280;27783;42.782;23.274;2023-04-06T03:03:34;95232.94;;;1.77
42119;BMP280;27783;42.782;23.274;2023-04-06T03:06:00;95223.06;;;1.83
42119;BMP280;27783;42.782;23.274;2023-04-06T03:08:32;95220.38;;;1.79
42119;BMP280;27783;42.782;23.274;2023-04-06T03:10:59;95217.19;;;1.85
42119;BMP280;27783;42.782;23.274;2023-04-06T03:13:24;95222.63;;;1.96
42119;BMP280;27783;42.782;23.274;2023-04-06T03:15:52;95227.66;;;1.89
42119;BMP280;27783;42.782;23.274;2023-04-06T03:18:21;95226.50;;;1.86
42119;BMP280;27783;42.782;23.274;2023-04-06T03:20:50;95227.00;;;1.92
42119;BMP280;27783;42.782;23.274;2023-04-06T03:23:17;95227.94;;;1.84
42119;BMP280;27783;42.782;23.274;2023-04-06T03:25:43;95225.25;;;1.81
42119;BMP280;27783;42.782;23.274;2023-04-06T03:28:11;95229.16;;;1.75
42119;BMP280;27783;42.782;23.274;2023-04-06T03:30:37;95226.06;;;1.84
42119;BMP280;27783;42.782;23.274;2023-04-06T03:33:03;95220.44;;;1.83
42119;BMP280;27783;42.782;23.274;2023-04-06T03:35:30;95216.25;;;1.78
42119;BMP280;27783;42.782;23.274;2023-04-06T03:38:04;95216.78;;;1.83
42119;BMP280;27783;42.782;23.274;2023-04-06T03:40:33;95219.38;;;1.83
42119;BMP280;27783;42.782;23.274;2023-04-06T03:43:00;95222.22;;;1.79
42119;BMP280;27783;42.782;23.274;2023-04-06T03:45:26;95223.47;;;1.84
42119;BMP280;27783;42.782;23.274;2023-04-06T03:47:53;95215.56;;;1.81
42119;BMP280;27783;42.782;23.274;2023-04-06T03:50:19;95212.84;;;1.74
42119;BMP280;27783;42.782;23.274;2023-04-06T03:52:45;95209.56;;;1.77
42119;BMP280;27783;42.782;23.274;2023-04-06T03:55:11;95215.44;;;1.74
42119;BMP280;27783;42.782;23.274;2023-04-06T03:57:38;95215.94;;;1.80
42119;BMP280;27783;42.782;23.274;2023-04-06T04:00:05;95216.25;;;1.78
42119;BMP280;27783;42.782;23.274;2023-04-06T04:02:31;95213.91;;;1.73
42119;BMP280;27783;42.782;23.274;2023-04-06T04:04:57;95215.34;;;1.71
42119;BMP280;27783;42.782;23.274;2023-04-06T04:07:23;95213.81;;;1.70
42119;BMP280;27783;42.782;23.274;2023-04-06T04:09:48;95215.75;;;1.73
42119;BMP280;27783;42.782;23.274;2023-04-06T04:12:14;95217.28;;;1.74
42119;BMP280;27783;42.782;23.274;2023-04-06T04:14:41;95220.78;;;1.81
42119;BMP280;27783;42.782;23.274;2023-04-06T04:17:07;95209.81;;;1.87
42119;BMP280;27783;42.782;23.274;2023-04-06T04:19:33;95214.59;;;1.85
42119;BMP280;27783;42.782;23.274;2023-04-06T04:21:58;95213.06;;;1.84
42119;BMP280;27783;42.782;23.274;2023-04-06T04:24:23;95217.19;;;1.85
42119;BMP280;27783;42.782;23.274;2023-04-06T04:26:49;95212.84;;;1.89
42119;BMP280;27783;42.782;23.274;2023-04-06T04:29:14;95221.03;;;1.91
42119;BMP280;27783;42.782;23.274;2023-04-06T04:31:40;95225.75;;;1.86
42119;BMP280;27783;42.782;23.274;2023-04-06T04:34:05;95220.22;;;2.02
42119;BMP280;27783;42.782;23.274;2023-04-06T04:36:32;95221.56;;;1.97
42119;BMP280;27783;42.782;23.274;2023-04-06T04:38:57;95223.75;;;2.10
42119;BMP280;27783;42.782;23.274;2023-04-06T04:41:23;95223.91;;;2.16
42119;BMP280;27783;42.782;23.274;2023-04-06T04:43:48;95227.19;;;2.14
42119;BMP280;27783;42.782;23.274;2023-04-06T04:46:14;95229.16;;;2.05
42119;BMP280;27783;42.782;23.274;2023-04-06T04:48:39;95227.59;;;2.00
42119;BMP280;27783;42.782;23.274;2023-04-06T04:51:05;95222.91;;;2.06
42119;BMP280;27783;42.782;23.274;2023-04-06T04:53:30;95228.00;;;2.17
42119;BMP280;27783;42.782;23.274;2023-04-06T04:55:56;95219.53;;;2.20
42119;BMP280;27783;42.782;23.274;2023-04-06T04:58:21;95222.63;;;2.26
42119;BMP280;27783;42.782;23.274;2023-04-06T05:00:47;95224.81;;;2.39
42119;BMP280;27783;42.782;23.274;2023-04-06T05:03:24;95225.03;;;2.34
42119;BMP280;27783;42.782;23.274;2023-04-06T05:05:50;95221.97;;;2.29
42119;BMP280;27783;42.782;23.274;2023-04-06T05:08:16;95218.00;;;2.34
42119;BMP280;27783;42.782;23.274;2023-04-06T05:10:42;95216.69;;;2.25
42119;BMP280;27783;42.782;23.274;2023-04-06T05:13:07;95220.38;;;2.24
42119;BMP280;27783;42.782;23.274;2023-04-06T05:15:33;95224.97;;;2.31
42119;BMP280;27783;42.782;23.274;2023-04-06T05:18:04;95226.59;;;2.20
42119;BMP280;27783;42.782;23.274;2023-04-06T05:20:29;95226.84;;;2.30
42119;BMP280;27783;42.782;23.274;2023-04-06T05:22:55;95225.03;;;2.34
42119;BMP280;27783;42.782;23.274;2023-04-06T05:25:21;95221.72;;;2.33
42119;BMP280;27783;42.782;23.274;2023-04-06T05:27:46;95216.16;;;2.35
42119;BMP280;27783;42.782;23.274;2023-04-06T05:30:12;95224.97;;;2.46
42119;BMP280;27783;42.782;23.274;2023-04-06T05:32:37;95212.22;;;2.41
42119;BMP280;27783;42.782;23.274;2023-04-06T05:35:03;95215.75;;;2.18
42119;BMP280;27783;42.782;23.274;2023-04-06T05:37:28;95213.16;;;2.33
42119;BMP280;27783;42.782;23.274;2023-04-06T05:39:54;95221.03;;;2.21
42119;BMP280;27783;42.782;23.274;2023-04-06T05:42:19;95219.28;;;2.40
42119;BMP280;27783;42.782;23.274;2023-04-06T05:44:45;95213.41;;;2.43
42119;BMP280;27783;42.782;23.274;2023-04-06T05:47:10;95209.59;;;2.41
42119;BMP280;27783;42.782;23.274;2023-04-06T05:49:35;95215.09;;;2.36
42119;BMP280;27783;42.782;23.274;2023-04-06T05:52:01;95205.69;;;2.47
42119;BMP280;27783;42.782;23.274;2023-04-06T05:54:26;95209.97;;;2.39
42119;BMP280;27783;42.782;23.274;2023-04-06T05:56:52;95213.72;;;2.42
42119;BMP280;27783;42.782;23.274;2023-04-06T05:59:18;95211.81;;;2.39
42119;BMP280;27783;42.782;23.274;2023-04-06T06:01:43;95208.56;;;2.27
42119;BMP280;27783;42.782;23.274;2023-04-06T06:04:09;95210.56;;;2.33
42119;BMP280;27783;42.782;23.274;2023-04-06T06:06:35;95212.88;;;2.38
42119;BMP280;27783;42.782;23.274;2023-04-06T06:09:01;95211.75;;;2.54
42119;BMP280;27783;42.782;23.274;2023-04-06T06:11:28;95214.09;;;2.40
42119;BMP280;27783;42.782;23.274;2023-04-06T06:13:54;95211.81;;;2.39
42119;BMP280;27783;42.782;23.274;2023-04-06T06:16:20;95205.16;;;2.41
42119;BMP280;27783;42.782;23.274;2023-04-06T06:18:46;95209.09;;;2.50
42119;BMP280;27783;42.782;23.274;2023-04-06T06:21:11;95206.25;;;2.55
42119;BMP280;27783;42.782;23.274;2023-04-06T06:23:38;95203.25;;;2.72
42119;BMP280;27783;42.782;23.274;2023-04-06T06:26:03;95214.44;;;2.57
42119;BMP280;27783;42.782;23.274;2023-04-06T06:28:29;95205.09;;;2.71
42119;BMP280;27783;42.782;23.274;2023-04-06T06:30:55;95209.91;;;2.69
42119;BMP280;27783;42.782;23.274;2023-04-06T06:33:20;95208.19;;;2.77
42119;BMP280;27783;42.782;23.274;2023-04-06T06:35:46;95203.88;;;2.66
42119;BMP280;27783;42.782;23.274;2023-04-06T06:38:11;95211.91;;;2.76
42119;BMP280;27783;42.782;23.274;2023-04-06T06:40:36;95209.28;;;2.76
42119;BMP280;27783;42.782;23.274;2023-04-06T06:43:02;95200.06;;;2.78
42119;BMP280;27783;42.782;23.274;2023-04-06T06:45:28;95200.59;;;2.68
42119;BMP280;27783;42.782;23.274;2023-04-06T06:47:54;95207.31;;;2.69
42119;BMP280;27783;42.782;23.274;2023-04-06T06:50:20;95206.91;;;2.86
42119;BMP280;27783;42.782;23.274;2023-04-06T06:52:45;95207.53;;;2.98
42119;BMP280;27783;42.782;23.274;2023-04-06T06:55:11;95211.66;;;2.99
42119;BMP280;27783;42.782;23.274;2023-04-06T06:57:36;95215.41;;;3.01
42119;BMP280;27783;42.782;23.274;2023-04-06T07:00:03;95204.13;;;3.13
42119;BMP280;27783;42.782;23.274;2023-04-06T07:02:30;95209.88;;;3.21
42119;BMP280;27783;42.782;23.274;2023-04-06T07:04:56;95225.22;;;3.08
42119;BMP280;27783;42.782;23.274;2023-04-06T07:07:24;95224.06;;;3.05
42119;BMP280;27783;42.782;23.274;2023-04-06T07:09:49;95209.13;;;3.21
42119;BMP280;27783;42.782;23.274;2023-04-06T07:12:15;95201.84;;;3.30
42119;BMP280;27783;42.782;23.274;2023-04-06T07:14:41;95212.53;;;3.43
42119;BMP280;27783;42.782;23.274;2023-04-06T07:17:07;95210.56;;;3.55
42119;BMP280;27783;42.782;23.274;2023-04-06T07:19:32;95209.84;;;3.58
42119;BMP280;27783;42.782;23.274;2023-04-06T07:21:57;95200.00;;;3.49
42119;BMP280;27783;42.782;23.274;2023-04-06T07:24:23;95203.13;;;3.57
42119;BMP280;27783;42.782;23.274;2023-04-06T07:26:48;95209.28;;;3.68
42119;BMP280;27783;42.782;23.274;2023-04-06T07:29:14;95200.84;;;3.96
42119;BMP280;27783;42.782;23.274;2023-04-06T07:31:39;95186.41;;;4.02
42119;BMP280;27783;42.782;23.274;2023-04-06T07:34:05;95204.38;;;3.85
42119;BMP280;27783;42.782;23.274;2023-04-06T07:36:30;95189.34;;;4.22
42119;BMP280;27783;42.782;23.274;2023-04-06T07:38:56;95200.25;;;4.06
42119;BMP280;27783;42.782;23.274;2023-04-06T07:41:21;95194.50;;;4.19
42119;BMP280;27783;42.782;23.274;2023-04-06T07:43:47;95203.16;;;4.23
42119;BMP280;27783;42.782;23.274;2023-04-06T07:46:12;95202.06;;;4.24
42119;BMP280;27783;42.782;23.274;2023-04-06T07:48:38;95197.50;;;4.17
42119;BMP280;27783;42.782;23.274;2023-04-06T07:51:04;95189.03;;;4.49
42119;BMP280;27783;42.782;23.274;2023-04-06T07:53:30;95193.81;;;4.44
42119;BMP280;27783;42.782;23.274;2023-04-06T07:55:56;95187.22;;;4.28
42119;BMP280;27783;42.782;23.274;2023-04-06T07:58:21;95187.09;;;4.71
42119;BMP280;27783;42.782;23.274;2023-04-06T08:00:47;95191.19;;;4.69
42119;BMP280;27783;42.782;23.274;2023-04-06T08:03:12;95202.72;;;4.68
42119;BMP280;27783;42.782;23.274;2023-04-06T08:05:38;95184.50;;;4.71
42119;BMP280;27783;42.782;23.274;2023-04-06T08:08:03;95193.31;;;4.60
42119;BMP280;27783;42.782;23.274;2023-04-06T08:10:28;95196.59;;;4.82
42119;BMP280;27783;42.782;23.274;2023-04-06T08:12:54;95206.50;;;4.70
42119;BMP280;27783;42.782;23.274;2023-04-06T08:15:19;95197.50;;;4.68
42119;BMP280;27783;42.782;23.274;2023-04-06T08:17:45;95189.81;;;4.78
42119;BMP280;27783;42.782;23.274;2023-04-06T08:20:10;95183.75;;;4.71
42119;BMP280;27783;42.782;23.274;2023-04-06T08:22:36;95193.06;;;5.26
42119;BMP280;27783;42.782;23.274;2023-04-06T08:25:01;95189.47;;;5.40
42119;BMP280;27783;42.782;23.274;2023-04-06T08:27:27;95188.09;;;4.89
42119;BMP280;27783;42.782;23.274;2023-04-06T08:29:52;95191.28;;;5.33
42119;BMP280;27783;42.782;23.274;2023-04-06T08:32:17;95200.78;;;4.87
42119;BMP280;27783;42.782;23.274;2023-04-06T08:34:43;95190.19;;;5.05
42119;BMP280;27783;42.782;23.274;2023-04-06T08:37:08;95196.75;;;5.85
42119;BMP280;27783;42.782;23.274;2023-04-06T08:39:34;95189.28;;;5.87
42119;BMP280;27783;42.782;23.274;2023-04-06T08:42:00;95188.44;;;5.80
42119;BMP280;27783;42.782;23.274;2023-04-06T08:44:29;95198.88;;;5.77
42119;BMP280;27783;42.782;23.274;2023-04-06T08:46:55;95188.78;;;6.14
42119;BMP280;27783;42.782;23.274;2023-04-06T08:49:21;95195.34;;;5.95
42119;BMP280;27783;42.782;23.274;2023-04-06T08:51:47;95196.00;;;5.88
42119;BMP280;27783;42.782;23.274;2023-04-06T08:54:12;95193.06;;;5.93
42119;BMP280;27783;42.782;23.274;2023-04-06T08:56:38;95183.41;;;6.00
42119;BMP280;27783;42.782;23.274;2023-04-06T08:59:05;95188.00;;;6.10
42119;BMP280;27783;42.782;23.274;2023-04-06T09:01:33;95194.63;;;6.01
42119;BMP280;27783;42.782;23.274;2023-04-06T09:04:00;95199.53;;;6.02
42119;BMP280;27783;42.782;23.274;2023-04-06T09:06:26;95198.22;;;5.86
42119;BMP280;27783;42.782;23.274;2023-04-06T09:08:52;95202.88;;;5.67
42119;BMP280;27783;42.782;23.274;2023-04-06T09:11:19;95203.13;;;5.56
42119;BMP280;27783;42.782;23.274;2023-04-06T09:13:55;95203.25;;;5.66
42119;BMP280;27783;42.782;23.274;2023-04-06T09:16:22;95200.31;;;5.39
42119;BMP280;27783;42.782;23.274;2023-04-06T09:18:49;95192.84;;;5.73
42119;BMP280;27783;42.782;23.274;2023-04-06T09:21:17;95188.88;;;5.53
42119;BMP280;27783;42.782;23.274;2023-04-06T09:23:43;95186.47;;;6.09
42119;BMP280;27783;42.782;23.274;2023-04-06T09:26:17;95190.22;;;6.08
42119;BMP280;27783;42.782;23.274;2023-04-06T09:28:47;95172.25;;;6.07
42119;BMP280;27783;42.782;23.274;2023-04-06T09:31:14;95183.13;;;5.70
42119;BMP280;27783;42.782;23.274;2023-04-06T09:33:46;95173.13;;;6.21
42119;BMP280;27783;42.782;23.274;2023-04-06T09:36:12;95179.81;;;6.15
42119;BMP280;27783;42.782;23.274;2023-04-06T09:38:50;95180.31;;;5.88
42119;BMP280;27783;42.782;23.274;2023-04-06T09:41:32;95177.44;;;6.46
42119;BMP280;27783;42.782;23.274;2023-04-06T09:44:05;95182.28;;;6.44
42119;BMP280;27783;42.782;23.274;2023-04-06T09:46:33;95171.72;;;6.30
42119;BMP280;27783;42.782;23.274;2023-04-06T09:49:02;95179.09;;;6.18
42119;BMP280;27783;42.782;23.274;2023-04-06T09:51:31;95175.59;;;6.04
42119;BMP280;27783;42.782;23.274;2023-04-06T09:53:57;95169.72;;;6.66
42119;BMP280;27783;42.782;23.274;2023-04-06T09:56:28;95175.88;;;6.34
42119;BMP280;27783;42.782;23.274;2023-04-06T09:59:02;95174.72;;;6.84
42119;BMP280;27783;42.782;23.274;2023-04-06T10:01:29;95179.69;;;6.47
42119;BMP280;27783;42.782;23.274;2023-04-06T10:06:53;95176.84;;;6.16
42119;BMP280;27783;42.782;23.274;2023-04-06T10:09:22;95178.59;;;6.48
42119;BMP280;27783;42.782;23.274;2023-04-06T10:11:50;95170.59;;;6.83
42119;BMP280;27783;42.782;23.274;2023-04-06T10:14:15;95169.19;;;6.99
42119;BMP280;27783;42.782;23.274;2023-04-06T10:16:42;95163.16;;;7.99
42119;BMP280;27783;42.782;23.274;2023-04-06T10:19:18;95164.38;;;7.15
42119;BMP280;27783;42.782;23.274;2023-04-06T10:21:48;95160.47;;;7.79
42119;BMP280;27783;42.782;23.274;2023-04-06T10:24:17;95162.59;;;7.36
42119;BMP280;27783;42.782;23.274;2023-04-06T10:26:43;95147.56;;;7.23
42119;BMP280;27783;42.782;23.274;2023-04-06T10:29:08;95153.28;;;7.48
42119;BMP280;27783;42.782;23.274;2023-04-06T10:31:40;95148.44;;;7.71
42119;BMP280;27783;42.782;23.274;2023-04-06T10:34:07;95138.75;;;7.95
42119;BMP280;27783;42.782;23.274;2023-04-06T10:36:33;95156.72;;;7.80
42119;BMP280;27783;42.782;23.274;2023-04-06T10:39:04;95129.41;;;8.08
42119;BMP280;27783;42.782;23.274;2023-04-06T10:41:42;95141.03;;;8.58
42119;BMP280;27783;42.782;23.274;2023-04-06T10:44:08;95139.16;;;8.62
42119;BMP280;27783;42.782;23.274;2023-04-06T10:46:33;95140.28;;;8.30
42119;BMP280;27783;42.782;23.274;2023-04-06T10:49:10;95134.28;;;8.40
42119;BMP280;27783;42.782;23.274;2023-04-06T10:51:39;95127.16;;;8.16
42119;BMP280;27783;42.782;23.274;2023-04-06T10:54:06;95130.50;;;8.78
42119;BMP280;27783;42.782;23.274;2023-04-06T10:56:32;95125.91;;;8.99
42119;BMP280;27783;42.782;23.274;2023-04-06T10:58:59;95115.47;;;8.79
42119;BMP280;27783;42.782;23.274;2023-04-06T11:01:25;95125.50;;;9.11
42119;BMP280;27783;42.782;23.274;2023-04-06T11:03:55;95117.22;;;9.09
42119;BMP280;27783;42.782;23.274;2023-04-06T11:06:23;95110.50;;;9.81
42119;BMP280;27783;42.782;23.274;2023-04-06T11:08:48;95123.38;;;7.73
42119;BMP280;27783;42.782;23.274;2023-04-06T11:11:16;95124.19;;;8.32
42119;BMP280;27783;42.782;23.274;2023-04-06T11:13:57;95117.75;;;8.49
42119;BMP280;27783;42.782;23.274;2023-04-06T11:16:29;95121.16;;;7.96
42119;BMP280;27783;42.782;23.274;2023-04-06T11:19:05;95112.75;;;9.06
42119;BMP280;27783;42.782;23.274;2023-04-06T11:21:40;95105.25;;;9.04
42119;BMP280;27783;42.782;23.274;2023-04-06T11:24:22;95110.28;;;8.28
42119;BMP280;27783;42.782;23.274;2023-04-06T11:26:53;95109.19;;;7.98
42119;BMP280;27783;42.782;23.274;2023-04-06T11:29:29;95107.31;;;8.16
42119;BMP280;27783;42.782;23.274;2023-04-06T11:31:59;95097.50;;;8.60
42119;BMP280;27783;42.782;23.274;2023-04-06T11:34:25;95091.56;;;8.09
42119;BMP280;27783;42.782;23.274;2023-04-06T11:37:15;95102.75;;;7.82
42119;BMP280;27783;42.782;23.274;2023-04-06T11:39:52;95100.50;;;7.81
42119;BMP280;27783;42.782;23.274;2023-04-06T11:42:27;95094.91;;;8.30
42119;BMP280;27783;42.782;23.274;2023-04-06T11:44:57;95104.66;;;8.39
42119;BMP280;27783;42.782;23.274;2023-04-06T11:47:34;95097.50;;;8.53
42119;BMP280;27783;42.782;23.274;2023-04-06T11:52:37;95094.56;;;9.42
42119;BMP280;27783;42.782;23.274;2023-04-06T11:55:18;95090.59;;;9.07
42119;BMP280;27783;42.782;23.274;2023-04-06T11:57:45;95089.09;;;9.06
42119;BMP280;27783;42.782;23.274;2023-04-06T12:00:15;95078.31;;;8.80
42119;BMP280;27783;42.782;23.274;2023-04-06T12:02:45;95076.16;;;8.28
42119;BMP280;27783;42.782;23.274;2023-04-06T12:05:11;95083.44;;;9.11
42119;BMP280;27783;42.782;23.274;2023-04-06T12:07:36;95086.63;;;8.58
42119;BMP280;27783;42.782;23.274;2023-04-06T12:10:02;95074.66;;;8.37
42119;BMP280;27783;42.782;23.274;2023-04-06T12:12:28;95078.75;;;8.51
42119;BMP280;27783;42.782;23.274;2023-04-06T12:15:15;95071.56;;;8.76
42119;BMP280;27783;42.782;23.274;2023-04-06T12:17:40;95076.41;;;8.87
42119;BMP280;27783;42.782;23.274;2023-04-06T12:20:10;95074.66;;;8.40
42119;BMP280;27783;42.782;23.274;2023-04-06T12:22:36;95068.13;;;8.89
42119;BMP280;27783;42.782;23.274;2023-04-06T12:25:03;95063.97;;;9.01
42119;BMP280;27783;42.782;23.274;2023-04-06T12:27:30;95068.22;;;8.62
42119;BMP280;27783;42.782;23.274;2023-04-06T12:29:56;95066.78;;;8.23
42119;BMP280;27783;42.782;23.274;2023-04-06T12:32:23;95066.00;;;8.53
42119;BMP280;27783;42.782;23.274;2023-04-06T12:34:52;95074.63;;;8.57
42119;BMP280;27783;42.782;23.274;2023-04-06T12:37:18;95069.31;;;8.78
42119;BMP280;27783;42.782;23.274;2023-04-06T12:39:43;95070.97;;;9.32
42119;BMP280;27783;42.782;23.274;2023-04-06T12:42:10;95064.03;;;9.58
42119;BMP280;27783;42.782;23.274;2023-04-06T12:44:36;95071.41;;;9.83
42119;BMP280;27783;42.782;23.274;2023-04-06T12:47:01;95062.06;;;9.05
42119;BMP280;27783;42.782;23.274;2023-04-06T12:49:28;95054.47;;;9.24
42119;BMP280;27783;42.782;23.274;2023-04-06T12:51:53;95056.56;;;9.49
42119;BMP280;27783;42.782;23.274;2023-04-06T12:54:20;95053.88;;;8.83
42119;BMP280;27783;42.782;23.274;2023-04-06T12:56:50;95050.50;;;8.82
42119;BMP280;27783;42.782;23.274;2023-04-06T12:59:15;95044.69;;;9.28
42119;BMP280;27783;42.782;23.274;2023-04-06T13:01:41;95040.41;;;9.54
42119;BMP280;27783;42.782;23.274;2023-04-06T13:04:15;95050.84;;;8.98
42119;BMP280;27783;42.782;23.274;2023-04-06T13:06:47;95044.84;;;9.61
42119;BMP280;27783;42.782;23.274;2023-04-06T13:09:14;95037.97;;;9.80
42119;BMP280;27783;42.782;23.274;2023-04-06T13:11:43;95041.72;;;9.19
42119;BMP280;27783;42.782;23.274;2023-04-06T13:14:10;95038.19;;;8.66
42119;BMP280;27783;42.782;23.274;2023-04-06T13:16:37;95031.00;;;9.53
42119;BMP280;27783;42.782;23.274;2023-04-06T13:19:03;95041.38;;;9.11
42119;BMP280;27783;42.782;23.274;2023-04-06T13:21:31;95042.97;;;8.95
42119;BMP280;27783;42.782;23.274;2023-04-06T13:23:57;95032.13;;;8.79
42119;BMP280;27783;42.782;23.274;2023-04-06T13:26:23;95022.09;;;9.34
42119;BMP280;27783;42.782;23.274;2023-04-06T13:28:49;95014.91;;;9.45
42119;BMP280;27783;42.782;23.274;2023-04-06T13:31:18;95025.22;;;9.09
42119;BMP280;27783;42.782;23.274;2023-04-06T13:33:44;95023.19;;;8.60
42119;BMP280;27783;42.782;23.274;2023-04-06T13:36:11;95018.44;;;8.17
42119;BMP280;27783;42.782;23.274;2023-04-06T13:38:38;95033.81;;;8.26
42119;BMP280;27783;42.782;23.274;2023-04-06T13:41:04;95021.44;;;8.26
42119;BMP280;27783;42.782;23.274;2023-04-06T13:43:38;95021.34;;;8.50
42119;BMP280;27783;42.782;23.274;2023-04-06T13:46:06;95019.47;;;8.54
42119;BMP280;27783;42.782;23.274;2023-04-06T13:48:33;95025.53;;;8.24
42119;BMP280;27783;42.782;23.274;2023-04-06T13:51:11;95026.66;;;8.33
42119;BMP280;27783;42.782;23.274;2023-04-06T13:53:37;95025.97;;;8.09
42119;BMP280;27783;42.782;23.274;2023-04-06T13:56:12;95025.97;;;7.99
42119;BMP280;27783;42.782;23.274;2023-04-06T13:58:38;95033.44;;;7.93
42119;BMP280;27783;42.782;23.274;2023-04-06T14:01:06;95021.44;;;7.92
42119;BMP280;27783;42.782;23.274;2023-04-06T14:03:33;95024.84;;;8.03
42119;BMP280;27783;42.782;23.274;2023-04-06T14:05:59;95025.22;;;8.05
42119;BMP280;27783;42.782;23.274;2023-04-06T14:08:29;95037.56;;;7.84
42119;BMP280;27783;42.782;23.274;2023-04-06T14:10:58;95028.19;;;8.20
42119;BMP280;27783;42.782;23.274;2023-04-06T14:13:24;95027.06;;;8.08
42119;BMP280;27783;42.782;23.274;2023-04-06T14:15:59;95041.69;;;8.09
42119;BMP280;27783;42.782;23.274;2023-04-06T14:18:25;95036.06;;;7.80